createdAt,value
2017-08-18T00:00:02.561Z,0
2017-08-18T00:01:12.830Z,0
2017-08-18T00:02:22.787Z,0
2017-08-18T00:03:32.443Z,0
2017-08-18T00:04:42.741Z,0
2017-08-18T00:05:53.011Z,0
2017-08-18T00:07:03.293Z,0
2017-08-18T00:08:13.568Z,0
2017-08-18T00:09:23.210Z,0
2017-08-18T00:10:33.170Z,0
2017-08-18T00:11:43.124Z,0
2017-08-18T00:12:53.089Z,0
2017-08-18T00:14:03.365Z,0
2017-08-18T00:15:13.640Z,0
2017-08-18T00:16:23.596Z,0
2017-08-18T00:17:33.872Z,0
2017-08-18T00:18:44.145Z,0
2017-08-18T00:19:54.418Z,0
2017-08-18T00:21:04.378Z,0
2017-08-18T00:22:14.649Z,0
2017-08-18T00:23:24.604Z,0
2017-08-18T00:24:34.557Z,0
2017-08-18T00:25:44.827Z,0
2017-08-18T00:26:54.792Z,0
2017-08-18T00:28:05.080Z,0
2017-08-18T00:29:15.348Z,0
2017-08-18T00:30:24.679Z,0
2017-08-18T00:31:34.961Z,0
2017-08-18T00:32:45.242Z,0
2017-08-18T00:33:55.198Z,0
2017-08-18T00:35:05.473Z,0
2017-08-18T00:36:15.435Z,0
2017-08-18T00:37:25.400Z,0
2017-08-18T00:38:35.686Z,0
2017-08-18T00:39:45.955Z,0
2017-08-18T00:40:56.227Z,0
2017-08-18T00:42:06.505Z,0
2017-08-18T00:43:16.780Z,0
2017-08-18T00:44:26.741Z,0
2017-08-18T00:45:37.011Z,0
2017-08-18T00:46:47.288Z,0
2017-08-18T00:47:56.936Z,0
2017-08-18T00:49:07.206Z,0
2017-08-18T00:50:17.168Z,0
2017-08-18T00:51:26.500Z,0
2017-08-18T00:52:36.461Z,0
2017-08-18T00:53:46.733Z,0
2017-08-18T00:54:56.703Z,0
2017-08-18T00:56:06.979Z,0
2017-08-18T00:57:17.253Z,0
2017-08-18T00:58:27.224Z,0
2017-08-18T00:59:37.501Z,0
2017-08-18T01:00:47.142Z,0
2017-08-18T01:01:57.103Z,0
2017-08-18T01:03:07.067Z,0
2017-08-18T01:04:17.341Z,0
2017-08-18T01:05:27.620Z,0
2017-08-18T01:06:37.579Z,0
2017-08-18T01:07:47.848Z,0
2017-08-18T01:08:58.115Z,0
2017-08-18T01:10:08.456Z,0
2017-08-18T01:11:18.416Z,0
2017-08-18T01:12:28.697Z,0
2017-08-18T01:13:38.657Z,0
2017-08-18T01:14:48.936Z,0
2017-08-18T01:15:59.209Z,0
2017-08-18T01:17:09.486Z,0
2017-08-18T01:18:19.440Z,0
2017-08-18T01:19:29.394Z,0
2017-08-18T01:20:39.351Z,0
2017-08-18T01:21:49.308Z,0
2017-08-18T01:22:59.277Z,0
2017-08-18T01:24:09.236Z,0
2017-08-18T01:25:19.196Z,0
2017-08-18T01:26:28.523Z,0
2017-08-18T01:27:38.803Z,0
2017-08-18T01:28:49.078Z,0
2017-08-18T01:29:59.035Z,0
2017-08-18T01:31:09.322Z,0
2017-08-18T01:32:18.962Z,0
2017-08-18T01:33:29.234Z,0
2017-08-18T01:34:39.505Z,0
2017-08-18T01:35:49.777Z,0
2017-08-18T01:37:00.045Z,0
2017-08-18T01:38:10.319Z,0
2017-08-18T01:39:20.591Z,0
2017-08-18T01:40:30.862Z,0
2017-08-18T01:41:40.821Z,0
2017-08-18T01:42:51.095Z,0
2017-08-18T01:44:01.053Z,0
2017-08-18T01:45:11.009Z,0
2017-08-18T01:46:20.967Z,0
2017-08-18T01:47:31.242Z,0
2017-08-18T01:48:41.510Z,0
2017-08-18T01:49:51.780Z,0
2017-08-18T01:51:01.841Z,0
2017-08-18T01:52:12.110Z,0
2017-08-18T01:53:22.387Z,0
2017-08-18T01:54:32.345Z,0
2017-08-18T01:55:42.619Z,0
2017-08-18T01:56:52.574Z,0
2017-08-18T01:58:02.850Z,0
2017-08-18T01:59:12.806Z,0
2017-08-18T02:00:23.082Z,0
2017-08-18T02:01:32.723Z,0
2017-08-18T02:02:42.692Z,0
2017-08-18T02:03:53.012Z,0
2017-08-18T02:05:03.283Z,0
2017-08-18T02:06:13.244Z,0
2017-08-18T02:07:23.547Z,0
2017-08-18T02:08:33.503Z,0
2017-08-18T02:09:43.774Z,0
2017-08-18T02:10:54.042Z,0
2017-08-18T02:12:03.685Z,0
2017-08-18T02:13:13.972Z,0
2017-08-18T02:14:23.930Z,0
2017-08-18T02:15:34.200Z,0
2017-08-18T02:16:44.158Z,0
2017-08-18T02:17:54.428Z,0
2017-08-18T02:19:04.701Z,0
2017-08-18T02:20:14.977Z,0
2017-08-18T02:21:24.936Z,0
2017-08-18T02:22:35.210Z,0
2017-08-18T02:23:45.485Z,0
2017-08-18T02:24:55.762Z,0
2017-08-18T02:26:06.036Z,0
2017-08-18T02:27:15.994Z,0
2017-08-18T02:28:25.948Z,0
2017-08-18T02:29:36.222Z,0
2017-08-18T02:30:46.496Z,0
2017-08-18T02:31:56.769Z,0
2017-08-18T02:33:07.039Z,0
2017-08-18T02:34:17.001Z,0
2017-08-18T02:35:26.962Z,0
2017-08-18T02:36:37.235Z,0
2017-08-18T02:37:47.530Z,0
2017-08-18T02:38:57.870Z,0
2017-08-18T02:40:07.511Z,0
2017-08-18T02:41:17.476Z,0
2017-08-18T02:42:27.773Z,0
2017-08-18T02:43:37.765Z,0
2017-08-18T02:44:48.038Z,0
2017-08-18T02:45:58.346Z,0
2017-08-18T02:47:08.305Z,0
2017-08-18T02:48:18.270Z,0
2017-08-18T02:49:27.915Z,0
2017-08-18T02:50:37.886Z,0
2017-08-18T02:51:47.853Z,0
2017-08-18T02:52:57.812Z,0
2017-08-18T02:54:07.765Z,0
2017-08-18T02:55:17.102Z,0
2017-08-18T02:56:27.082Z,0
2017-08-18T02:57:37.039Z,0
2017-08-18T02:58:47.312Z,0
2017-08-18T02:59:57.268Z,0
2017-08-18T03:01:07.226Z,0
2017-08-18T03:02:17.494Z,0
2017-08-18T03:03:27.139Z,0
2017-08-18T03:04:37.410Z,0
2017-08-18T03:05:47.682Z,0
2017-08-18T03:06:57.949Z,0
2017-08-18T03:08:07.597Z,0
2017-08-18T03:09:17.869Z,0
2017-08-18T03:10:27.826Z,4
2017-08-18T03:11:37.787Z,0
2017-08-18T03:12:48.056Z,0
2017-08-18T03:13:58.328Z,0
2017-08-18T03:15:07.970Z,0
2017-08-18T03:16:17.937Z,4
2017-08-18T03:17:27.579Z,0
2017-08-18T03:18:37.849Z,4
2017-08-18T03:19:47.810Z,4
2017-08-18T03:20:58.082Z,0
2017-08-18T03:22:08.046Z,4
2017-08-18T03:23:18.329Z,4
2017-08-18T03:24:27.968Z,4
2017-08-18T03:25:37.924Z,4
2017-08-18T03:26:47.893Z,8
2017-08-18T03:27:58.172Z,4
2017-08-18T03:29:08.444Z,8
2017-08-18T03:30:18.727Z,12
2017-08-18T03:31:28.689Z,12
2017-08-18T03:32:38.959Z,8
2017-08-18T03:33:49.228Z,12
2017-08-18T03:34:59.496Z,12
2017-08-18T03:36:09.142Z,12
2017-08-18T03:37:19.412Z,12
2017-08-18T03:38:29.682Z,24
2017-08-18T03:39:39.954Z,16
2017-08-18T03:40:50.226Z,16
2017-08-18T03:42:00.497Z,16
2017-08-18T03:43:10.769Z,16
2017-08-18T03:44:20.413Z,20
2017-08-18T03:45:30.389Z,20
2017-08-18T03:46:40.660Z,24
2017-08-18T03:47:50.614Z,24
2017-08-18T03:49:00.887Z,24
2017-08-18T03:50:11.159Z,28
2017-08-18T03:51:21.114Z,36
2017-08-18T03:52:30.452Z,32
2017-08-18T03:53:40.734Z,28
2017-08-18T03:54:51.035Z,28
2017-08-18T03:56:01.315Z,28
2017-08-18T03:57:11.269Z,36
2017-08-18T03:58:21.227Z,36
2017-08-18T03:59:30.870Z,32
2017-08-18T04:00:40.832Z,36
2017-08-18T04:01:50.791Z,36
2017-08-18T04:03:01.061Z,40
2017-08-18T04:04:11.334Z,40
2017-08-18T04:05:21.292Z,36
2017-08-18T04:06:31.574Z,40
2017-08-18T04:07:41.847Z,40
2017-08-18T04:08:51.804Z,40
2017-08-18T04:10:02.074Z,44
2017-08-18T04:11:11.717Z,64
2017-08-18T04:12:21.680Z,52
2017-08-18T04:13:31.949Z,60
2017-08-18T04:14:41.606Z,72
2017-08-18T04:15:51.881Z,68
2017-08-18T04:17:02.156Z,64
2017-08-18T04:18:12.455Z,72
2017-08-18T04:19:22.724Z,68
2017-08-18T04:20:32.995Z,68
2017-08-18T04:21:42.634Z,80
2017-08-18T04:22:52.617Z,72
2017-08-18T04:24:02.890Z,80
2017-08-18T04:25:13.158Z,72
2017-08-18T04:26:23.428Z,76
2017-08-18T04:27:33.390Z,84
2017-08-18T04:28:43.659Z,92
2017-08-18T04:29:53.926Z,108
2017-08-18T04:31:03.888Z,120
2017-08-18T04:32:13.868Z,140
2017-08-18T04:33:24.138Z,152
2017-08-18T04:34:34.104Z,160
2017-08-18T04:35:44.379Z,192
2017-08-18T04:36:54.658Z,196
2017-08-18T04:38:04.616Z,208
2017-08-18T04:39:14.890Z,232
2017-08-18T04:40:25.160Z,216
2017-08-18T04:41:35.431Z,204
2017-08-18T04:42:45.708Z,216
2017-08-18T04:43:55.665Z,220
2017-08-18T04:45:05.945Z,216
2017-08-18T04:46:15.901Z,256
2017-08-18T04:47:25.545Z,260
2017-08-18T04:48:35.814Z,248
2017-08-18T04:49:46.084Z,284
2017-08-18T04:50:56.376Z,284
2017-08-18T04:52:06.018Z,344
2017-08-18T04:53:16.290Z,356
2017-08-18T04:54:25.939Z,268
2017-08-18T04:55:36.222Z,320
2017-08-18T04:56:46.177Z,324
2017-08-18T04:57:56.464Z,352
2017-08-18T04:59:06.741Z,356
2017-08-18T05:00:17.010Z,328
2017-08-18T05:01:26.966Z,312
2017-08-18T05:02:36.922Z,320
2017-08-18T05:03:46.879Z,404
2017-08-18T05:04:57.169Z,384
2017-08-18T05:06:07.440Z,364
2017-08-18T05:07:17.395Z,436
2017-08-18T05:08:27.352Z,540
2017-08-18T05:09:37.626Z,440
2017-08-18T05:10:47.585Z,520
2017-08-18T05:11:57.860Z,476
2017-08-18T05:13:08.139Z,492
2017-08-18T05:14:18.415Z,416
2017-08-18T05:15:28.069Z,460
2017-08-18T05:16:38.343Z,544
2017-08-18T05:17:48.302Z,512
2017-08-18T05:18:58.572Z,568
2017-08-18T05:20:08.846Z,540
2017-08-18T05:21:18.810Z,556
2017-08-18T05:22:29.088Z,536
2017-08-18T05:23:39.044Z,704
2017-08-18T05:24:49.313Z,888
2017-08-18T05:25:59.601Z,856
2017-08-18T05:27:09.874Z,844
2017-08-18T05:28:20.144Z,884
2017-08-18T05:29:30.420Z,912
2017-08-18T05:30:40.373Z,936
2017-08-18T05:31:50.331Z,948
2017-08-18T05:32:59.972Z,1160
2017-08-18T05:34:10.248Z,1216
2017-08-18T05:35:20.520Z,1248
2017-08-18T05:36:30.476Z,1264
2017-08-18T05:37:40.436Z,984
2017-08-18T05:38:50.401Z,1016
2017-08-18T05:40:00.050Z,1048
2017-08-18T05:41:10.006Z,1080
2017-08-18T05:42:20.274Z,1072
2017-08-18T05:43:29.600Z,1132
2017-08-18T05:44:40.109Z,1212
2017-08-18T05:45:50.397Z,1272
2017-08-18T05:47:00.038Z,1212
2017-08-18T05:48:09.996Z,984
2017-08-18T05:49:20.281Z,1108
2017-08-18T05:50:30.554Z,1084
2017-08-18T05:51:40.835Z,1292
2017-08-18T05:52:51.104Z,1328
2017-08-18T05:54:00.431Z,1256
2017-08-18T05:55:10.071Z,1060
2017-08-18T05:56:20.030Z,840
2017-08-18T05:57:29.989Z,900
2017-08-18T05:58:39.947Z,984
2017-08-18T05:59:50.219Z,924
2017-08-18T06:01:00.487Z,1032
2017-08-18T06:02:10.451Z,908
2017-08-18T06:03:20.097Z,900
2017-08-18T06:04:30.055Z,1088
2017-08-18T06:05:40.017Z,1100
2017-08-18T06:06:50.289Z,980
2017-08-18T06:08:00.560Z,884
2017-08-18T06:09:10.527Z,936
2017-08-18T06:10:20.201Z,1052
2017-08-18T06:11:30.491Z,1112
2017-08-18T06:12:40.764Z,1032
2017-08-18T06:13:51.034Z,1060
2017-08-18T06:15:01.303Z,1028
2017-08-18T06:16:11.261Z,1220
2017-08-18T06:17:21.532Z,1076
2017-08-18T06:18:31.182Z,1068
2017-08-18T06:19:41.454Z,1252
2017-08-18T06:20:51.725Z,1104
2017-08-18T06:22:02.010Z,1132
2017-08-18T06:23:12.282Z,1148
2017-08-18T06:24:22.247Z,1064
2017-08-18T06:25:32.215Z,1140
2017-08-18T06:26:41.541Z,1152
2017-08-18T06:27:51.821Z,1472
2017-08-18T06:29:02.094Z,1144
2017-08-18T06:30:12.370Z,1496
2017-08-18T06:31:22.326Z,1384
2017-08-18T06:32:32.286Z,1396
2017-08-18T06:33:42.247Z,1592
2017-08-18T06:34:52.523Z,1528
2017-08-18T06:36:02.800Z,1272
2017-08-18T06:37:12.759Z,1728
2017-08-18T06:38:23.033Z,1840
2017-08-18T06:39:33.306Z,1544
2017-08-18T06:40:43.593Z,1528
2017-08-18T06:41:53.862Z,1320
2017-08-18T06:43:03.826Z,1364
2017-08-18T06:44:14.131Z,1376
2017-08-18T06:45:24.413Z,1248
2017-08-18T06:46:34.709Z,1608
2017-08-18T06:47:44.353Z,2084
2017-08-18T06:48:54.626Z,1956
2017-08-18T06:50:04.899Z,1976
2017-08-18T06:51:14.863Z,2376
2017-08-18T06:52:24.819Z,2716
2017-08-18T06:53:35.089Z,2528
2017-08-18T06:54:45.358Z,2296
2017-08-18T06:55:55.327Z,2500
2017-08-18T06:57:05.607Z,2876
2017-08-18T06:58:15.879Z,3044
2017-08-18T06:59:26.149Z,2916
2017-08-18T07:00:36.420Z,3564
2017-08-18T07:01:46.690Z,3908
2017-08-18T07:02:56.651Z,3956
2017-08-18T07:04:06.922Z,3320
2017-08-18T07:05:16.252Z,3156
2017-08-18T07:06:26.208Z,2956
2017-08-18T07:07:36.483Z,3484
2017-08-18T07:08:46.764Z,3940
2017-08-18T07:09:57.050Z,3912
2017-08-18T07:11:07.330Z,3824
2017-08-18T07:12:17.603Z,3672
2017-08-18T07:13:27.559Z,3352
2017-08-18T07:14:37.831Z,3388
2017-08-18T07:15:47.789Z,3316
2017-08-18T07:16:58.070Z,3944
2017-08-18T07:18:08.342Z,3980
2017-08-18T07:19:17.988Z,4216
2017-08-18T07:20:27.953Z,4244
2017-08-18T07:21:38.224Z,3984
2017-08-18T07:22:48.182Z,3940
2017-08-18T07:24:00.455Z,4440
2017-08-18T07:25:10.414Z,4616
2017-08-18T07:26:20.741Z,4428
2017-08-18T07:27:30.694Z,3936
2017-08-18T07:28:40.664Z,3588
2017-08-18T07:29:50.938Z,3140
2017-08-18T07:31:01.215Z,3008
2017-08-18T07:32:11.488Z,3148
2017-08-18T07:33:21.129Z,3496
2017-08-18T07:34:30.460Z,3852
2017-08-18T07:35:42.882Z,4516
2017-08-18T07:36:53.155Z,4804
2017-08-18T07:38:03.431Z,5100
2017-08-18T07:39:13.714Z,5060
2017-08-18T07:40:24.012Z,4680
2017-08-18T07:41:36.074Z,4356
2017-08-18T07:42:46.351Z,4244
2017-08-18T07:43:56.626Z,4320
2017-08-18T07:45:06.903Z,4268
2017-08-18T07:46:17.176Z,4512
2017-08-18T07:47:27.449Z,4072
2017-08-18T07:48:37.405Z,3756
2017-08-18T07:49:47.361Z,3484
2017-08-18T07:50:57.343Z,3504
2017-08-18T07:52:07.616Z,3740
2017-08-18T07:53:17.574Z,4176
2017-08-18T07:54:27.533Z,4392
2017-08-18T07:55:37.496Z,4816
2017-08-18T07:56:47.770Z,4924
2017-08-18T07:57:57.731Z,5044
2017-08-18T07:59:07.693Z,4904
2017-08-18T08:00:17.971Z,4700
2017-08-18T08:01:27.958Z,4340
2017-08-18T08:02:37.606Z,4828
2017-08-18T08:03:47.561Z,4564
2017-08-18T08:04:57.518Z,4120
2017-08-18T08:06:07.794Z,4000
2017-08-18T08:07:17.757Z,5072
2017-08-18T08:08:27.730Z,4520
2017-08-18T08:09:37.374Z,4648
2017-08-18T08:10:47.017Z,5812
2017-08-18T08:11:56.663Z,6256
2017-08-18T08:13:06.939Z,5728
2017-08-18T08:14:17.213Z,6032
2017-08-18T08:15:27.191Z,5432
2017-08-18T08:16:37.463Z,4936
2017-08-18T08:17:47.738Z,4488
2017-08-18T08:18:58.013Z,4632
2017-08-18T08:20:07.977Z,4616
2017-08-18T08:21:18.275Z,4388
2017-08-18T08:22:28.233Z,4192
2017-08-18T08:23:37.570Z,4244
2017-08-18T08:24:47.846Z,4360
2017-08-18T08:25:57.196Z,4336
2017-08-18T08:27:07.471Z,4280
2017-08-18T08:28:17.742Z,4404
2017-08-18T08:29:28.018Z,5092
2017-08-18T08:30:37.979Z,5952
2017-08-18T08:31:47.941Z,5864
2017-08-18T08:32:57.898Z,5776
2017-08-18T08:34:07.861Z,6544
2017-08-18T08:35:18.146Z,6736
2017-08-18T08:36:28.416Z,7036
2017-08-18T08:37:38.689Z,7792
2017-08-18T08:38:48.967Z,8688
2017-08-18T08:39:58.612Z,9532
2017-08-18T08:41:08.571Z,10980
2017-08-18T08:42:18.842Z,11548
2017-08-18T08:43:28.803Z,10800
2017-08-18T08:44:38.762Z,9792
2017-08-18T08:45:49.043Z,9240
2017-08-18T08:46:58.372Z,9776
2017-08-18T08:48:08.017Z,10764
2017-08-18T08:49:17.351Z,11536
2017-08-18T08:50:27.633Z,11920
2017-08-18T08:51:37.913Z,10644
2017-08-18T08:52:48.190Z,10772
2017-08-18T08:53:58.467Z,10136
2017-08-18T08:55:08.164Z,9684
2017-08-18T08:56:18.138Z,10080
2017-08-18T08:57:28.102Z,10412
2017-08-18T08:58:38.386Z,9812
2017-08-18T08:59:48.354Z,9876
2017-08-18T09:00:58.317Z,9776
2017-08-18T09:02:07.652Z,9688
2017-08-18T09:03:17.925Z,9576
2017-08-18T09:04:27.931Z,9076
2017-08-18T09:05:38.205Z,9272
2017-08-18T09:06:48.488Z,8716
2017-08-18T09:07:58.447Z,8476
2017-08-18T09:09:08.724Z,7696
2017-08-18T09:10:18.694Z,6572
2017-08-18T09:11:28.658Z,6784
2017-08-18T09:12:38.616Z,6056
2017-08-18T09:13:48.900Z,5760
2017-08-18T09:14:58.861Z,5560
2017-08-18T09:16:08.840Z,5684
2017-08-18T09:17:19.114Z,5996
2017-08-18T09:18:29.072Z,6236
2017-08-18T09:19:39.037Z,6944
2017-08-18T09:20:49.314Z,5620
2017-08-18T09:21:58.962Z,4572
2017-08-18T09:23:08.931Z,4452
2017-08-18T09:24:19.204Z,4408
2017-08-18T09:25:29.479Z,3792
2017-08-18T09:26:39.122Z,3832
2017-08-18T09:27:49.079Z,4148
2017-08-18T09:28:59.358Z,4812
2017-08-18T09:30:09.634Z,5568
2017-08-18T09:31:19.906Z,6064
2017-08-18T09:32:29.875Z,6456
2017-08-18T09:33:39.518Z,4536
2017-08-18T09:34:49.797Z,4264
2017-08-18T09:35:59.756Z,4744
2017-08-18T09:37:10.030Z,4748
2017-08-18T09:38:19.995Z,5228
2017-08-18T09:39:30.274Z,5732
2017-08-18T09:40:40.240Z,6048
2017-08-18T09:41:50.515Z,6596
2017-08-18T09:43:00.795Z,6444
2017-08-18T09:44:10.758Z,6156
2017-08-18T09:45:20.721Z,5664
2017-08-18T09:46:30.679Z,5376
2017-08-18T09:47:40.951Z,5988
2017-08-18T09:48:51.228Z,7292
2017-08-18T09:50:00.880Z,8108
2017-08-18T09:51:10.842Z,7688
2017-08-18T09:52:20.808Z,6296
2017-08-18T09:53:30.776Z,5280
2017-08-18T09:54:41.049Z,4436
2017-08-18T09:55:51.322Z,4416
2017-08-18T09:57:01.602Z,5400
2017-08-18T09:58:11.589Z,5844
2017-08-18T09:59:21.872Z,6032
2017-08-18T10:00:31.838Z,6112
2017-08-18T10:01:41.799Z,5524
2017-08-18T10:02:51.764Z,6028
2017-08-18T10:04:01.724Z,6476
2017-08-18T10:05:12.034Z,6584
2017-08-18T10:06:22.010Z,6392
2017-08-18T10:07:32.291Z,6476
2017-08-18T10:08:42.565Z,6940
2017-08-18T10:09:52.842Z,6868
2017-08-18T10:11:03.122Z,7812
2017-08-18T10:12:13.088Z,8524
2017-08-18T10:13:23.051Z,8728
2017-08-18T10:14:32.698Z,8640
2017-08-18T10:15:42.667Z,8424
2017-08-18T10:16:52.943Z,7540
2017-08-18T10:18:03.226Z,6724
2017-08-18T10:19:13.500Z,6096
2017-08-18T10:20:23.778Z,6084
2017-08-18T10:21:33.737Z,6320
2017-08-18T10:22:44.012Z,6200
2017-08-18T10:23:54.293Z,6388
2017-08-18T10:25:04.261Z,6980
2017-08-18T10:26:14.225Z,6028
2017-08-18T10:27:24.194Z,4344
2017-08-18T10:28:33.840Z,3424
2017-08-18T10:29:43.804Z,3120
2017-08-18T10:30:53.767Z,3004
2017-08-18T10:32:03.731Z,3228
2017-08-18T10:33:13.381Z,3236
2017-08-18T10:34:23.659Z,3412
2017-08-18T10:35:33.617Z,4040
2017-08-18T10:36:43.575Z,6000
2017-08-18T10:37:53.224Z,9704
2017-08-18T10:39:03.502Z,12256
2017-08-18T10:40:13.779Z,14320
2017-08-18T10:41:24.061Z,16544
2017-08-18T10:42:34.021Z,25216
2017-08-18T10:43:43.985Z,22368
2017-08-18T10:44:53.632Z,17568
2017-08-18T10:46:03.912Z,19584
2017-08-18T10:47:14.191Z,20928
2017-08-18T10:48:24.159Z,20064
2017-08-18T10:49:33.505Z,27264
2017-08-18T10:50:43.151Z,19136
2017-08-18T10:51:53.123Z,12996
2017-08-18T10:53:03.088Z,13156
2017-08-18T10:54:13.049Z,14448
2017-08-18T10:55:23.012Z,21472
2017-08-18T10:56:33.295Z,25024
2017-08-18T10:57:43.576Z,19648
2017-08-18T10:58:53.542Z,14844
2017-08-18T11:00:03.853Z,12408
2017-08-18T11:01:13.501Z,11424
2017-08-18T11:02:23.782Z,11408
2017-08-18T11:03:34.064Z,15832
2017-08-18T11:04:44.345Z,19008
2017-08-18T11:05:54.309Z,18272
2017-08-18T11:07:04.623Z,21664
2017-08-18T11:08:14.272Z,22560
2017-08-18T11:09:24.236Z,15028
2017-08-18T11:10:33.885Z,12344
2017-08-18T11:11:44.196Z,8944
2017-08-18T11:12:54.162Z,8904
2017-08-18T11:14:04.132Z,10652
2017-08-18T11:15:13.788Z,9096
2017-08-18T11:16:24.070Z,9948
2017-08-18T11:17:34.352Z,16832
2017-08-18T11:18:44.642Z,19424
2017-08-18T11:19:54.921Z,20608
2017-08-18T11:21:05.196Z,13788
2017-08-18T11:22:15.489Z,13924
2017-08-18T11:23:25.461Z,11636
2017-08-18T11:24:35.120Z,10952
2017-08-18T11:25:45.399Z,13100
2017-08-18T11:26:55.679Z,23648
2017-08-18T11:28:05.330Z,15000
2017-08-18T11:29:14.989Z,41408
2017-08-18T11:30:25.292Z,38752
2017-08-18T11:31:35.574Z,63456
2017-08-18T11:32:45.853Z,85312
2017-08-18T11:33:55.826Z,88288
2017-08-18T11:35:06.114Z,19232
2017-08-18T11:36:16.082Z,24544
2017-08-18T11:37:26.049Z,12848
2017-08-18T11:38:36.336Z,12764
2017-08-18T11:39:46.300Z,13332
2017-08-18T11:40:56.579Z,14128
2017-08-18T11:42:06.869Z,15784
2017-08-18T11:43:16.518Z,13276
2017-08-18T11:44:26.498Z,16320
2017-08-18T11:45:36.819Z,18528
2017-08-18T11:46:46.780Z,18624
2017-08-18T11:47:56.751Z,19168
2017-08-18T11:49:07.043Z,33728
2017-08-18T11:50:16.694Z,95136
2017-08-18T11:51:26.976Z,29760
2017-08-18T11:52:36.941Z,43968
2017-08-18T11:53:47.217Z,25312
2017-08-18T11:54:57.495Z,40224
2017-08-18T11:56:07.776Z,83296
2017-08-18T11:57:18.065Z,89248
2017-08-18T11:58:28.035Z,85728
2017-08-18T11:59:37.705Z,83616
2017-08-18T12:00:47.357Z,87392
2017-08-18T12:01:57.637Z,11020
2017-08-18T12:03:07.924Z,10000
2017-08-18T12:04:18.205Z,11336
2017-08-18T12:05:28.492Z,14404
2017-08-18T12:06:38.152Z,20544
2017-08-18T12:07:48.124Z,51008
2017-08-18T12:08:58.098Z,19616
2017-08-18T12:10:08.379Z,14656
2017-08-18T12:11:18.344Z,13188
2017-08-18T12:12:28.310Z,12732
2017-08-18T12:13:37.961Z,12512
2017-08-18T12:14:47.648Z,14044
2017-08-18T12:15:57.927Z,15832
2017-08-18T12:17:07.889Z,16896
2017-08-18T12:18:17.860Z,17504
2017-08-18T12:19:28.143Z,17312
2017-08-18T12:20:38.420Z,17184
2017-08-18T12:21:48.386Z,17280
2017-08-18T12:22:58.671Z,17472
2017-08-18T12:24:08.327Z,20352
2017-08-18T12:25:18.300Z,25216
2017-08-18T12:26:28.579Z,27040
2017-08-18T12:27:37.918Z,22080
2017-08-18T12:28:48.193Z,57600
2017-08-18T12:29:57.847Z,41440
2017-08-18T12:31:07.510Z,24224
2017-08-18T12:32:17.480Z,25152
2017-08-18T12:33:27.446Z,35680
2017-08-18T12:34:37.413Z,40640
2017-08-18T12:35:47.376Z,19360
2017-08-18T12:36:57.345Z,18880
2017-08-18T12:38:06.678Z,25248
2017-08-18T12:39:16.956Z,51424
2017-08-18T12:40:26.923Z,19456
2017-08-18T12:41:37.210Z,18336
2017-08-18T12:42:47.498Z,17760
2017-08-18T12:43:57.479Z,19904
2017-08-18T12:45:07.443Z,24416
2017-08-18T12:46:17.097Z,28704
2017-08-18T12:47:27.062Z,31040
2017-08-18T12:48:37.030Z,91296
2017-08-18T12:49:47.307Z,94752
2017-08-18T12:50:57.591Z,89952
2017-08-18T12:52:07.870Z,24544
2017-08-18T12:53:18.177Z,39776
2017-08-18T12:54:28.484Z,30592
2017-08-18T12:55:38.761Z,89760
2017-08-18T12:56:48.738Z,82976
2017-08-18T12:57:59.017Z,80000
2017-08-18T12:59:08.670Z,79936
2017-08-18T13:00:18.948Z,79136
2017-08-18T13:01:28.913Z,72288
2017-08-18T13:02:38.891Z,71200
2017-08-18T13:03:48.865Z,68928
2017-08-18T13:04:59.158Z,70240
2017-08-18T13:06:09.446Z,73984
2017-08-18T13:07:19.109Z,77856
2017-08-18T13:08:29.085Z,78912
2017-08-18T13:09:39.371Z,77408
2017-08-18T13:10:49.346Z,77856
2017-08-18T13:11:59.319Z,83200
2017-08-18T13:13:09.602Z,83488
2017-08-18T13:14:19.887Z,80064
2017-08-18T13:15:30.186Z,76608
2017-08-18T13:16:40.156Z,77152
2017-08-18T13:17:50.441Z,77024
2017-08-18T13:19:00.727Z,72192
2017-08-18T13:20:10.700Z,72896
2017-08-18T13:21:20.047Z,73504
2017-08-18T13:22:30.023Z,78560
2017-08-18T13:23:39.995Z,21536
2017-08-18T13:24:49.963Z,23168
2017-08-18T13:25:59.937Z,81056
2017-08-18T13:27:10.223Z,83168
2017-08-18T13:28:20.511Z,78368
2017-08-18T13:29:30.170Z,74144
2017-08-18T13:30:40.144Z,75392
2017-08-18T13:31:50.432Z,76896
2017-08-18T13:33:00.405Z,73824
2017-08-18T13:34:10.377Z,69824
2017-08-18T13:35:20.350Z,69760
2017-08-18T13:36:30.637Z,74688
2017-08-18T13:37:40.608Z,74496
2017-08-18T13:38:50.895Z,77568
2017-08-18T13:40:00.565Z,74944
2017-08-18T13:41:10.848Z,72224
2017-08-18T13:42:21.131Z,63744
2017-08-18T13:43:31.428Z,16576
2017-08-18T13:44:41.399Z,14300
2017-08-18T13:45:51.374Z,21664
2017-08-18T13:47:01.659Z,30912
2017-08-18T13:48:11.941Z,23488
2017-08-18T13:49:22.229Z,23328
2017-08-18T13:50:31.884Z,29600
2017-08-18T13:51:42.168Z,25536
2017-08-18T13:52:52.142Z,22080
2017-08-18T13:54:01.793Z,22560
2017-08-18T13:55:11.494Z,79328
2017-08-18T13:56:21.780Z,67968
2017-08-18T13:57:31.743Z,74272
2017-08-18T13:58:41.465Z,63040
2017-08-18T13:59:51.117Z,65760
2017-08-18T14:01:01.086Z,66752
2017-08-18T14:02:11.058Z,64480
2017-08-18T14:03:21.029Z,15360
2017-08-18T14:04:31.002Z,12880
2017-08-18T14:05:40.969Z,13556
2017-08-18T14:06:51.252Z,16020
2017-08-18T14:08:01.221Z,17376
2017-08-18T14:09:11.186Z,13560
2017-08-18T14:10:21.158Z,10316
2017-08-18T14:11:31.455Z,8916
2017-08-18T14:12:41.429Z,8620
2017-08-18T14:13:51.714Z,8508
2017-08-18T14:15:01.999Z,12336
2017-08-18T14:16:12.277Z,80480
2017-08-18T14:17:21.930Z,22720
2017-08-18T14:18:31.892Z,18336
2017-08-18T14:19:41.227Z,12872
2017-08-18T14:20:51.522Z,11468
2017-08-18T14:22:01.173Z,10868
2017-08-18T14:23:11.137Z,10420
2017-08-18T14:24:21.417Z,10640
2017-08-18T14:25:31.386Z,10212
2017-08-18T14:26:41.663Z,9592
2017-08-18T14:27:51.939Z,9896
2017-08-18T14:29:02.223Z,9536
2017-08-18T14:30:12.507Z,9692
2017-08-18T14:31:22.472Z,9392
2017-08-18T14:32:32.753Z,6440
2017-08-18T14:33:43.034Z,4516
2017-08-18T14:34:52.682Z,3792
2017-08-18T14:36:02.643Z,3756
2017-08-18T14:37:12.931Z,3904
2017-08-18T14:38:23.216Z,4028
2017-08-18T14:39:33.494Z,4188
2017-08-18T14:40:43.459Z,4028
2017-08-18T14:41:53.423Z,3324
2017-08-18T14:43:03.073Z,2624
2017-08-18T14:44:13.041Z,2268
2017-08-18T14:45:23.322Z,2184
2017-08-18T14:46:33.620Z,2376
2017-08-18T14:47:43.584Z,2676
2017-08-18T14:48:53.870Z,3384
2017-08-18T14:50:04.158Z,4784
2017-08-18T14:51:14.437Z,6336
2017-08-18T14:52:24.089Z,6696
2017-08-18T14:53:33.734Z,7036
2017-08-18T14:54:44.014Z,7708
2017-08-18T14:55:54.291Z,8624
2017-08-18T14:57:03.941Z,9408
2017-08-18T14:58:13.599Z,9096
2017-08-18T14:59:23.879Z,7948
2017-08-18T15:00:34.159Z,7228
2017-08-18T15:01:44.436Z,6104
2017-08-18T15:02:54.400Z,5268
2017-08-18T15:04:04.678Z,4948
2017-08-18T15:05:14.325Z,5032
2017-08-18T15:06:24.602Z,5364
2017-08-18T15:07:34.561Z,5772
2017-08-18T15:08:44.530Z,5976
2017-08-18T15:09:54.812Z,6052
2017-08-18T15:11:04.773Z,6540
2017-08-18T15:12:14.421Z,6876
2017-08-18T15:13:24.394Z,6932
2017-08-18T15:14:34.358Z,7388
2017-08-18T15:15:44.638Z,7872
2017-08-18T15:16:54.603Z,7684
2017-08-18T15:18:04.577Z,7432
2017-08-18T15:19:14.859Z,7328
2017-08-18T15:20:24.508Z,7512
2017-08-18T15:21:34.792Z,7532
2017-08-18T15:22:44.755Z,7348
2017-08-18T15:23:55.033Z,6856
2017-08-18T15:25:04.994Z,6716
2017-08-18T15:26:14.960Z,6328
2017-08-18T15:27:24.931Z,5888
2017-08-18T15:28:34.581Z,5428
2017-08-18T15:29:43.910Z,5100
2017-08-18T15:30:53.870Z,5212
2017-08-18T15:32:04.148Z,5892
2017-08-18T15:33:14.111Z,7960
2017-08-18T15:34:24.394Z,19136
2017-08-18T15:35:34.368Z,13764
2017-08-18T15:36:44.328Z,21856
2017-08-18T15:37:54.296Z,19744
2017-08-18T15:39:04.572Z,15232
2017-08-18T15:40:14.536Z,13192
2017-08-18T15:41:24.507Z,13916
2017-08-18T15:42:34.792Z,14540
2017-08-18T15:43:44.759Z,14312
2017-08-18T15:44:55.035Z,14160
2017-08-18T15:46:05.339Z,14700
2017-08-18T15:47:15.612Z,14048
2017-08-18T15:48:25.259Z,12016
2017-08-18T15:49:35.229Z,9460
2017-08-18T15:50:47.194Z,8340
2017-08-18T15:51:56.844Z,7120